createdAt,value
2023-01-05T00:01:53.319Z,93.13
2023-01-05T00:04:21.011Z,93.08
2023-01-05T00:06:48.871Z,93.06
2023-01-05T00:09:18.910Z,92.98
2023-01-05T00:12:04.852Z,92.97
2023-01-05T00:14:52.385Z,92.97
2023-01-05T00:17:41.375Z,92.95
2023-01-05T00:20:40.020Z,92.94
2023-01-05T00:23:09.156Z,92.91
2023-01-05T00:25:39.821Z,92.79
2023-01-05T00:28:07.976Z,92.79
2023-01-05T00:30:40.388Z,92.72
2023-01-05T00:33:11.719Z,92.62
2023-01-05T00:35:40.037Z,92.58
2023-01-05T00:38:08.555Z,92.63
2023-01-05T00:40:38.553Z,92.83
2023-01-05T00:43:06.443Z,92.81
2023-01-05T00:45:34.402Z,92.70
2023-01-05T00:48:02.097Z,92.73
2023-01-05T00:50:29.980Z,92.83
2023-01-05T00:52:57.703Z,92.87
2023-01-05T00:55:27.689Z,92.79
2023-01-05T00:57:56.100Z,92.75
2023-01-05T01:00:23.990Z,92.66
2023-01-05T01:02:54.722Z,92.55
2023-01-05T01:05:23.541Z,92.47
2023-01-05T01:07:52.760Z,92.55
2023-01-05T01:10:20.650Z,92.57
2023-01-05T01:12:48.357Z,92.51
2023-01-05T01:15:16.312Z,92.48
2023-01-05T01:17:44.341Z,92.45
2023-01-05T01:20:12.678Z,92.36
2023-01-05T01:22:40.508Z,92.47
2023-01-05T01:25:09.335Z,92.46
2023-01-05T01:27:37.115Z,92.44
2023-01-05T01:30:05.990Z,92.42
2023-01-05T01:32:34.088Z,92.44
2023-01-05T01:35:01.982Z,92.40
2023-01-05T01:37:29.985Z,92.21
2023-01-05T01:39:58.484Z,92.14
2023-01-05T01:42:26.675Z,92.01
2023-01-05T01:45:01.342Z,91.83
2023-01-05T01:47:39.326Z,91.86
2023-01-05T01:50:19.041Z,91.84
2023-01-05T01:52:50.556Z,92.07
2023-01-05T01:55:19.619Z,92.27
2023-01-05T01:57:49.099Z,92.50
2023-01-05T02:00:18.818Z,92.73
2023-01-05T02:02:49.143Z,92.83
2023-01-05T02:05:22.481Z,92.81
2023-01-05T02:07:50.345Z,92.82
2023-01-05T02:10:23.920Z,92.80
2023-01-05T02:13:12.316Z,92.64
2023-01-05T02:15:54.382Z,92.34
2023-01-05T02:18:39.804Z,92.40
2023-01-05T02:21:33.553Z,92.43
2023-01-05T02:24:27.614Z,92.60
2023-01-05T02:27:21.583Z,92.62
2023-01-05T02:30:14.337Z,92.37
2023-01-05T02:33:02.294Z,92.37
2023-01-05T02:35:53.629Z,92.45
2023-01-05T02:38:44.287Z,92.64
2023-01-05T02:44:02.338Z,92.24
2023-01-05T02:46:30.938Z,92.28
2023-01-05T02:49:01.259Z,92.43
2023-01-05T02:51:39.143Z,92.60
2023-01-05T02:54:20.640Z,92.71
2023-01-05T02:57:04.511Z,92.70
2023-01-05T02:59:49.499Z,92.67
2023-01-05T03:02:24.897Z,92.68
2023-01-05T03:05:07.503Z,92.72
2023-01-05T03:07:39.416Z,92.81
2023-01-05T03:10:12.279Z,92.82
2023-01-05T03:12:58.727Z,92.86
2023-01-05T03:15:32.940Z,92.89
2023-01-05T03:18:05.045Z,92.92
2023-01-05T03:20:35.653Z,92.88
2023-01-05T03:23:26.468Z,92.72
2023-01-05T03:26:14.721Z,92.60
2023-01-05T03:29:17.847Z,92.77
2023-01-05T03:32:16.927Z,92.65
2023-01-05T03:35:17.585Z,92.66
2023-01-05T03:38:12.355Z,92.58
2023-01-05T03:40:41.625Z,92.62
2023-01-05T03:43:10.236Z,92.68
2023-01-05T03:45:46.667Z,92.57
2023-01-05T03:48:16.596Z,92.45
2023-01-05T03:50:44.524Z,92.36
2023-01-05T03:53:14.874Z,92.31
2023-01-05T03:55:44.208Z,92.16
2023-01-05T03:58:12.176Z,92.26
2023-01-05T04:00:41.880Z,92.33
2023-01-05T04:03:10.602Z,92.31
2023-01-05T04:05:39.372Z,92.21
2023-01-05T04:08:07.148Z,92.26
2023-01-05T04:10:36.091Z,92.17
2023-01-05T04:13:04.172Z,92.20
2023-01-05T04:15:32.113Z,92.03
2023-01-05T04:18:00.562Z,91.92
2023-01-05T04:20:28.944Z,91.94
2023-01-05T04:22:56.751Z,91.97
2023-01-05T04:25:26.497Z,91.81
2023-01-05T04:27:54.290Z,91.74
2023-01-05T04:30:22.490Z,91.71
2023-01-05T04:32:50.455Z,91.66
2023-01-05T04:35:18.199Z,91.72
2023-01-05T04:37:46.097Z,91.71
2023-01-05T04:40:14.382Z,91.66
2023-01-05T04:42:44.072Z,91.52
2023-01-05T04:45:11.709Z,91.43
2023-01-05T04:47:39.690Z,91.50
2023-01-05T04:50:11.197Z,91.30
2023-01-05T04:52:39.593Z,91.14
2023-01-05T04:55:08.958Z,91.02
2023-01-05T04:57:36.931Z,90.95
2023-01-05T05:00:05.900Z,90.92
2023-01-05T05:02:34.997Z,90.98
2023-01-05T05:05:03.245Z,91.02
2023-01-05T05:07:31.102Z,90.97
2023-01-05T05:09:59.996Z,91.07
2023-01-05T05:12:28.324Z,91.18
2023-01-05T05:14:56.219Z,91.24
2023-01-05T05:17:24.978Z,91.14
2023-01-05T05:19:52.870Z,91.12
2023-01-05T05:22:21.504Z,91.11
2023-01-05T05:24:49.550Z,91.08
2023-01-05T05:27:17.276Z,91.12
2023-01-05T05:29:45.186Z,91.07
2023-01-05T05:32:13.033Z,91.02
2023-01-05T05:34:40.898Z,91.16
2023-01-05T05:37:09.196Z,91.17
2023-01-05T05:39:36.882Z,91.30
2023-01-05T05:42:04.957Z,91.31
2023-01-05T05:44:32.791Z,91.24
2023-01-05T05:47:00.528Z,91.23
2023-01-05T05:49:28.501Z,91.21
2023-01-05T05:51:56.464Z,91.14
2023-01-05T05:54:24.319Z,91.23
2023-01-05T05:56:52.132Z,91.09
2023-01-05T05:59:20.071Z,90.99
2023-01-05T06:01:47.952Z,90.97
2023-01-05T06:04:15.717Z,91.00
2023-01-05T06:06:43.357Z,90.86
2023-01-05T06:09:11.070Z,90.92
2023-01-05T06:11:39.013Z,91.05
2023-01-05T06:14:07.982Z,91.02
2023-01-05T06:16:35.967Z,90.95
2023-01-05T06:19:03.782Z,90.89
2023-01-05T06:21:31.851Z,90.86
2023-01-05T06:23:59.692Z,90.74
2023-01-05T06:26:27.591Z,90.77
2023-01-05T06:28:55.624Z,90.80
2023-01-05T06:31:23.414Z,90.83
2023-01-05T06:33:51.116Z,90.76
2023-01-05T06:36:18.954Z,90.79
2023-01-05T06:38:46.843Z,90.85
2023-01-05T06:41:14.941Z,90.90
2023-01-05T06:43:42.682Z,90.95
2023-01-05T06:46:10.690Z,90.93
2023-01-05T06:48:38.877Z,91.04
2023-01-05T06:51:06.670Z,91.01
2023-01-05T06:53:34.689Z,90.94
2023-01-05T06:56:02.740Z,90.83
2023-01-05T06:58:30.861Z,90.75
2023-01-05T07:00:58.975Z,90.81
2023-01-05T07:03:30.991Z,90.72
2023-01-05T07:05:58.987Z,90.67
2023-01-05T07:08:27.157Z,90.55
2023-01-05T07:10:55.156Z,90.61
2023-01-05T07:13:23.373Z,90.56
2023-01-05T07:15:51.457Z,90.35
2023-01-05T07:18:19.559Z,90.41
2023-01-05T07:20:47.583Z,90.48
2023-01-05T07:23:18.189Z,90.60
2023-01-05T07:25:47.265Z,90.67
2023-01-05T07:28:15.626Z,90.59
2023-01-05T07:30:43.921Z,90.56
2023-01-05T07:33:11.915Z,90.54
2023-01-05T07:35:39.900Z,90.56
2023-01-05T07:38:12.475Z,90.65
2023-01-05T07:40:41.253Z,90.55
2023-01-05T07:43:09.495Z,90.60
2023-01-05T07:45:37.797Z,90.57
2023-01-05T07:48:11.915Z,90.55
2023-01-05T07:50:39.641Z,90.28
2023-01-05T07:53:07.535Z,90.21
2023-01-05T07:55:35.460Z,90.33
2023-01-05T07:58:03.426Z,90.35
2023-01-05T08:00:31.141Z,90.11
2023-01-05T08:02:58.868Z,90.12
2023-01-05T08:05:28.508Z,90.09
2023-01-05T08:07:58.190Z,89.90
2023-01-05T08:10:30.170Z,89.98
2023-01-05T08:13:22.276Z,90.03
2023-01-05T08:15:57.781Z,89.89
2023-01-05T08:18:25.621Z,90.07
2023-01-05T08:20:59.232Z,90.30
2023-01-05T08:23:28.252Z,90.37
2023-01-05T08:25:56.288Z,90.39
2023-01-05T08:28:29.901Z,90.30
2023-01-05T08:31:02.124Z,90.24
2023-01-05T08:33:29.937Z,90.48
2023-01-05T08:35:58.276Z,90.36
2023-01-05T08:38:26.558Z,90.01
2023-01-05T08:41:01.964Z,89.80
2023-01-05T08:43:31.756Z,89.63
2023-01-05T08:45:59.062Z,89.35
2023-01-05T08:48:26.887Z,89.36
2023-01-05T08:50:54.655Z,89.38
2023-01-05T08:53:22.370Z,89.45
2023-01-05T08:55:50.175Z,89.47
2023-01-05T08:58:17.907Z,89.52
2023-01-05T09:00:45.841Z,89.47
2023-01-05T09:03:13.681Z,89.46
2023-01-05T09:05:41.755Z,89.21
2023-01-05T09:08:09.434Z,89.06
2023-01-05T09:10:37.193Z,89.20
2023-01-05T09:13:04.977Z,89.19
2023-01-05T09:15:32.540Z,89.12
2023-01-05T09:18:01.076Z,88.90
2023-01-05T09:20:32.013Z,88.92
2023-01-05T09:22:58.708Z,88.84
2023-01-05T09:25:26.546Z,88.78
2023-01-05T09:27:54.415Z,88.46
2023-01-05T09:30:22.081Z,88.34
2023-01-05T09:32:50.143Z,88.27
2023-01-05T09:35:17.915Z,88.30
2023-01-05T09:37:46.152Z,87.89
2023-01-05T09:40:14.151Z,87.87
2023-01-05T09:42:45.865Z,88.02
2023-01-05T09:45:20.863Z,88.17
2023-01-05T09:47:49.745Z,87.95
2023-01-05T09:50:24.612Z,87.82
2023-01-05T09:52:57.315Z,87.53
2023-01-05T09:55:28.572Z,87.26
2023-01-05T09:58:04.810Z,87.15
2023-01-05T10:00:33.426Z,87.21
2023-01-05T10:03:44.681Z,87.15
2023-01-05T10:05:49.504Z,87.07
2023-01-05T10:08:28.424Z,86.55
2023-01-05T10:11:23.194Z,86.35
2023-01-05T10:14:05.363Z,86.41
2023-01-05T10:16:35.141Z,86.27
2023-01-05T10:19:04.337Z,86.44
2023-01-05T10:22:06.794Z,86.56
2023-01-05T10:24:46.846Z,86.45
2023-01-05T10:27:38.648Z,85.72
2023-01-05T10:30:28.448Z,85.01
2023-01-05T10:33:25.261Z,84.99
2023-01-05T10:36:12.043Z,84.97
2023-01-05T10:39:00.565Z,85.13
2023-01-05T10:41:40.933Z,84.69
2023-01-05T10:44:32.216Z,84.87
2023-01-05T10:47:01.438Z,85.27
2023-01-05T10:49:32.358Z,85.45
2023-01-05T10:52:01.245Z,85.65
2023-01-05T10:54:46.790Z,85.73
2023-01-05T10:57:37.502Z,85.89
2023-01-05T11:00:19.873Z,85.92
2023-01-05T11:03:00.962Z,85.89
2023-01-05T11:05:36.422Z,85.97
2023-01-05T11:08:09.023Z,86.10
2023-01-05T11:10:59.173Z,86.05
2023-01-05T11:13:42.934Z,86.01
2023-01-05T11:16:15.891Z,86.11
2023-01-05T11:19:03.469Z,86.15
2023-01-05T11:21:41.832Z,86.21
2023-01-05T11:24:26.757Z,86.07
2023-01-05T11:27:02.539Z,86.11
2023-01-05T11:29:32.677Z,86.12
2023-01-05T11:32:06.401Z,86.17
2023-01-05T11:34:45.407Z,86.11
2023-01-05T11:37:23.734Z,86.07
2023-01-05T11:39:55.740Z,86.07
2023-01-05T11:42:28.752Z,86.12
2023-01-05T11:45:06.765Z,86.04
2023-01-05T11:47:44.600Z,86.14
2023-01-05T11:50:28.205Z,86.05
2023-01-05T11:52:58.919Z,86.04
2023-01-05T11:55:39.578Z,86.02
2023-01-05T11:58:30.472Z,86.13
2023-01-05T12:01:12.411Z,86.34
2023-01-05T12:04:07.227Z,86.28
2023-01-05T12:07:19.824Z,86.12
2023-01-05T12:10:05.382Z,86.53
2023-01-05T12:12:38.763Z,86.49
2023-01-05T12:15:18.150Z,86.27
2023-01-05T12:18:24.207Z,86.00
2023-01-05T12:21:12.467Z,86.01
2023-01-05T12:24:08.442Z,86.39
2023-01-05T12:26:44.374Z,86.33
2023-01-05T12:36:01.820Z,86.75
2023-01-05T12:38:43.979Z,86.87
2023-01-05T12:41:38.108Z,87.01
2023-01-05T12:44:26.621Z,87.06
2023-01-05T12:47:28.781Z,87.25
2023-01-05T12:50:01.212Z,87.25
2023-01-05T12:52:55.117Z,87.54
2023-01-05T12:59:01.022Z,87.74
2023-01-05T13:01:34.142Z,87.85
2023-01-05T13:04:16.076Z,88.12
2023-01-05T13:06:51.663Z,88.83
2023-01-05T13:09:29.349Z,88.88
2023-01-05T13:12:07.321Z,88.87
2023-01-05T13:14:52.919Z,89.17
2023-01-05T13:17:29.720Z,89.22
2023-01-05T13:20:18.417Z,89.29
2023-01-05T13:22:49.333Z,89.46
2023-01-05T13:25:24.255Z,89.65
2023-01-05T13:27:52.261Z,89.64
2023-01-05T13:30:37.829Z,89.76
2023-01-05T13:33:35.931Z,89.91
2023-01-05T13:36:33.039Z,90.12
2023-01-05T13:39:34.039Z,90.00
2023-01-05T13:42:42.135Z,90.19
2023-01-05T13:45:24.538Z,90.37
2023-01-05T13:48:44.588Z,90.41
2023-01-05T13:51:49.785Z,90.55
2023-01-05T13:54:26.932Z,90.67
2023-01-05T13:56:55.388Z,90.69
2023-01-05T13:59:34.876Z,90.77
2023-01-05T14:02:00.091Z,90.75
2023-01-05T14:04:33.057Z,90.72
2023-01-05T14:07:12.700Z,90.84
2023-01-05T14:09:49.096Z,90.95
2023-01-05T14:12:22.786Z,91.13
2023-01-05T14:15:12.555Z,91.35
2023-01-05T14:18:01.287Z,91.39
2023-01-05T14:20:51.227Z,91.45
2023-01-05T14:23:29.639Z,91.56
2023-01-05T14:26:08.214Z,91.66
2023-01-05T14:28:45.778Z,91.79
2023-01-05T14:31:20.684Z,91.84
2023-01-05T14:34:06.595Z,91.89
2023-01-05T14:37:00.932Z,91.84
2023-01-05T14:39:44.545Z,91.78
2023-01-05T14:42:17.212Z,91.82
2023-01-05T14:45:01.142Z,91.84
2023-01-05T14:47:48.089Z,91.87
2023-01-05T14:50:40.140Z,91.86
2023-01-05T14:53:21.746Z,91.95
2023-01-05T14:55:58.417Z,92.07
2023-01-05T14:58:43.558Z,92.15
2023-01-05T15:01:22.951Z,92.26
2023-01-05T15:04:17.042Z,92.36
2023-01-05T15:07:19.716Z,92.44
2023-01-05T15:10:05.238Z,92.55
2023-01-05T15:12:54.440Z,92.81
2023-01-05T15:15:43.492Z,93.13
2023-01-05T15:18:38.191Z,93.04
2023-01-05T15:21:11.357Z,93.13
2023-01-05T15:24:21.108Z,93.21
2023-01-05T15:27:09.388Z,93.34
2023-01-05T15:30:01.631Z,93.53
2023-01-05T15:32:37.301Z,93.49
2023-01-05T15:35:28.519Z,93.52
2023-01-05T15:37:56.583Z,93.50
2023-01-05T15:40:30.450Z,93.52
2023-01-05T15:43:01.777Z,93.55
2023-01-05T15:45:35.960Z,93.52
2023-01-05T15:48:09.378Z,93.49
2023-01-05T15:50:48.437Z,93.50
2023-01-05T15:53:34.873Z,93.46
2023-01-05T15:56:04.138Z,93.55
2023-01-05T15:58:36.674Z,93.58
2023-01-05T16:01:09.881Z,93.52
2023-01-05T16:03:41.127Z,93.53
2023-01-05T16:06:28.004Z,93.57
2023-01-05T16:09:01.488Z,93.53
2023-01-05T16:11:40.225Z,93.63
2023-01-05T16:14:27.712Z,93.71
2023-01-05T16:17:06.570Z,93.70
2023-01-05T16:19:42.373Z,93.76
2023-01-05T16:22:36.527Z,93.79
2023-01-05T16:25:21.918Z,93.68
2023-01-05T16:27:56.469Z,93.79
2023-01-05T16:30:34.593Z,93.85
2023-01-05T16:33:20.284Z,93.88
2023-01-05T16:35:54.859Z,93.90
2023-01-05T16:38:30.745Z,93.95
2023-01-05T16:41:16.588Z,93.98
2023-01-05T16:44:02.053Z,94.06
2023-01-05T16:46:34.798Z,94.24
2023-01-05T16:49:28.175Z,94.47
2023-01-05T16:51:56.873Z,94.65
2023-01-05T16:54:38.856Z,94.90
2023-01-05T16:57:34.300Z,95.19
2023-01-05T17:00:03.991Z,95.26
2023-01-05T17:02:45.741Z,95.25
2023-01-05T17:05:22.125Z,95.35
2023-01-05T17:08:07.817Z,95.63
2023-01-05T17:10:36.297Z,95.55
2023-01-05T17:13:09.384Z,95.60
2023-01-05T17:15:43.453Z,95.65
2023-01-05T17:18:27.099Z,95.55
2023-01-05T17:20:58.677Z,95.50
2023-01-05T17:23:49.609Z,95.46
2023-01-05T17:26:32.280Z,95.40
2023-01-05T17:31:35.261Z,95.29
2023-01-05T17:34:03.459Z,95.21
2023-01-05T17:36:34.021Z,95.17
2023-01-05T17:39:02.795Z,95.13
2023-01-05T17:41:30.866Z,95.16
2023-01-05T17:43:58.788Z,95.09
2023-01-05T17:46:31.110Z,95.05
2023-01-05T17:49:02.238Z,95.02
2023-01-05T17:51:30.807Z,94.95
2023-01-05T17:53:59.371Z,94.90
2023-01-05T17:56:27.035Z,94.89
2023-01-05T17:59:00.292Z,94.87
2023-01-05T18:01:28.273Z,94.80
2023-01-05T18:03:56.273Z,94.71
2023-01-05T18:06:25.093Z,94.54
2023-01-05T18:08:54.804Z,94.49
2023-01-05T18:11:24.995Z,94.30
2023-01-05T18:13:54.924Z,94.28
2023-01-05T18:16:23.860Z,94.25
2023-01-05T18:18:53.943Z,94.21
2023-01-05T18:21:22.486Z,94.07
2023-01-05T18:23:51.672Z,94.03
2023-01-05T18:26:19.536Z,94.04
2023-01-05T18:28:47.424Z,94.06
2023-01-05T18:31:16.412Z,94.06
2023-01-05T18:33:44.973Z,94.00
2023-01-05T18:36:14.618Z,94.05
2023-01-05T18:38:42.935Z,93.97
2023-01-05T18:41:12.239Z,93.97
2023-01-05T18:43:43.208Z,93.98
2023-01-05T18:46:10.973Z,93.91
2023-01-05T18:48:38.747Z,93.84
2023-01-05T18:51:08.566Z,93.83
2023-01-05T18:53:39.235Z,93.86
2023-01-05T18:56:09.794Z,93.86
2023-01-05T18:58:46.440Z,93.86
2023-01-05T19:01:17.758Z,93.94
2023-01-05T19:03:46.360Z,93.92
2023-01-05T19:06:17.518Z,94.01
2023-01-05T19:08:48.183Z,93.99
2023-01-05T19:11:26.194Z,93.89
2023-01-05T19:13:55.882Z,93.95
2023-01-05T19:16:27.237Z,93.97
2023-01-05T19:19:00.756Z,94.02
2023-01-05T19:21:32.353Z,94.02
2023-01-05T19:24:02.657Z,94.06
2023-01-05T19:26:33.198Z,94.06
2023-01-05T19:29:03.262Z,94.17
2023-01-05T19:31:31.522Z,94.13
2023-01-05T19:33:59.499Z,94.22
2023-01-05T19:36:31.262Z,94.27
2023-01-05T19:39:07.843Z,94.29
2023-01-05T19:41:38.637Z,94.34
2023-01-05T19:44:07.136Z,94.33
2023-01-05T19:46:35.449Z,94.34
2023-01-05T19:49:03.511Z,94.36
2023-01-05T19:51:31.581Z,94.42
2023-01-05T19:54:03.515Z,94.43
2023-01-05T19:56:36.425Z,94.46
2023-01-05T19:59:09.497Z,94.44
2023-01-05T20:01:37.677Z,94.44
2023-01-05T20:04:06.014Z,94.52
2023-01-05T20:06:40.388Z,94.49
2023-01-05T20:09:12.583Z,94.50
2023-01-05T20:11:45.842Z,94.42
2023-01-05T20:14:26.215Z,94.41
2023-01-05T20:16:58.283Z,94.36
2023-01-05T20:19:29.366Z,94.37
2023-01-05T20:22:03.056Z,94.39
2023-01-05T20:24:33.723Z,94.37
2023-01-05T20:27:05.807Z,94.37
2023-01-05T20:29:34.591Z,94.35
2023-01-05T20:32:07.433Z,94.35
2023-01-05T20:34:43.603Z,94.41
2023-01-05T20:37:12.328Z,94.41
2023-01-05T20:39:42.820Z,94.37
2023-01-05T20:42:13.465Z,94.35
2023-01-05T20:44:46.198Z,94.36
2023-01-05T20:47:16.613Z,94.46
2023-01-05T20:49:45.659Z,94.53
2023-01-05T20:52:17.055Z,94.48
2023-01-05T20:54:49.924Z,94.47
2023-01-05T20:57:21.763Z,94.49
2023-01-05T20:59:49.806Z,94.47
2023-01-05T21:02:24.063Z,94.47
2023-01-05T21:04:47.604Z,94.53
2023-01-05T21:07:15.676Z,94.56
2023-01-05T21:09:43.539Z,94.63
2023-01-05T21:12:11.359Z,94.76
2023-01-05T21:14:39.206Z,94.77
2023-01-05T21:17:07.264Z,94.77
2023-01-05T21:19:36.562Z,94.83
2023-01-05T21:22:04.870Z,94.94
2023-01-05T21:24:32.668Z,94.98
2023-01-05T21:27:00.843Z,95.09
2023-01-05T21:29:30.650Z,95.24
2023-01-05T21:32:00.235Z,95.23
2023-01-05T21:34:28.177Z,95.37
2023-01-05T21:36:56.044Z,95.43
2023-01-05T21:39:27.371Z,95.56
2023-01-05T21:42:13.735Z,95.58
2023-01-05T21:44:41.605Z,95.62
2023-01-05T21:47:09.869Z,95.66
2023-01-05T21:49:39.526Z,95.74
2023-01-05T21:52:25.716Z,95.66
2023-01-05T21:55:12.573Z,95.66
2023-01-05T21:57:40.097Z,95.61
2023-01-05T22:00:09.208Z,95.63
2023-01-05T22:02:37.251Z,95.58
2023-01-05T22:05:06.448Z,95.52
2023-01-05T22:07:34.415Z,95.46
2023-01-05T22:10:02.437Z,95.41
2023-01-05T22:12:30.520Z,95.37
2023-01-05T22:14:58.233Z,95.40
2023-01-05T22:17:26.182Z,95.33
2023-01-05T22:19:53.934Z,95.27
2023-01-05T22:22:22.474Z,95.24
2023-01-05T22:24:50.376Z,95.20
2023-01-05T22:27:18.364Z,95.12
2023-01-05T22:29:46.353Z,95.02
2023-01-05T22:32:14.252Z,94.93
2023-01-05T22:34:43.933Z,94.76
2023-01-05T22:37:11.920Z,94.64
2023-01-05T22:39:39.880Z,94.55
2023-01-05T22:42:07.805Z,94.48
2023-01-05T22:44:35.503Z,94.63
2023-01-05T22:47:03.146Z,94.48
2023-01-05T22:49:31.026Z,94.55
2023-01-05T22:51:58.771Z,94.59
2023-01-05T22:54:26.860Z,94.08
2023-01-05T22:56:54.645Z,94.29
2023-01-05T22:59:22.475Z,94.25
2023-01-05T23:01:50.179Z,94.12
2023-01-05T23:04:18.733Z,94.03
2023-01-05T23:06:46.451Z,94.15
2023-01-05T23:09:16.264Z,93.97
2023-01-05T23:11:46.420Z,93.89
2023-01-05T23:14:17.364Z,93.75
2023-01-05T23:16:45.482Z,93.78
2023-01-05T23:19:14.635Z,93.79
2023-01-05T23:21:42.818Z,93.60
2023-01-05T23:24:10.888Z,93.56
2023-01-05T23:26:38.832Z,93.49
2023-01-05T23:29:06.764Z,93.40
2023-01-05T23:31:34.696Z,93.04
2023-01-05T23:34:02.595Z,92.96
2023-01-05T23:36:30.307Z,92.80
2023-01-05T23:38:58.126Z,92.61
2023-01-05T23:41:25.761Z,92.58
2023-01-05T23:43:53.663Z,92.48
2023-01-05T23:46:22.472Z,92.33
2023-01-05T23:48:51.700Z,92.20
2023-01-05T23:51:19.995Z,92.01
2023-01-05T23:53:51.831Z,92.06
2023-01-05T23:56:24.414Z,92.09
2023-01-05T23:59:00.280Z,91.89
